Bookmark and Share
Track history (hours):
 

Pontos

More information available from US FCC via Universal Licensing System and Coast Guard Vessel Documentation Center.

Last reported at 2014-Apr-16 04:24 UTC. Time now 2014-Apr-19 07:06 UTC.
Position N 39°32' W 074°06'.

Length 31 m.

Type: Fishing. MMSI: 367087860.

NotesDate/timePositionNaut miles runAvg speedWind from/ knotsBaromVisibWave heightAir tempDewpointWater temp
2014-Apr-16 04:24N 39°32' W 074°06'7 8.1
2014-Apr-16 03:33N 39°38' W 074°00'8 7.7
2014-Apr-16 02:32N 39°43' W 073°53'60 2.8
2014-Apr-15 05:30N 40°19' W 072°51'11 1.8
2014-Apr-14 23:32N 40°17' W 073°04'8 7.9
2014-Apr-14 22:34N 40°15' W 073°14'8 7.8
2014-Apr-14 21:30N 40°13' W 073°24'7 7.6
2014-Apr-14 20:34N 40°11' W 073°33'8 7.8
2014-Apr-14 19:30N 40°09' W 073°44'8 8.3
2014-Apr-14 18:32N 40°07' W 073°54'7 6.6
2014-Apr-14 17:33N 40°06' W 074°02'57 2.2
2014-Apr-13 16:17N 40°20' W 072°51'1 0.5
2014-Apr-13 15:03N 40°20' W 072°50'1 1.9
2014-Apr-13 14:27N 40°19' W 072°51'2 1.8
2014-Apr-13 13:32N 40°18' W 072°52'1 1.1
2014-Apr-13 12:33N 40°17' W 072°51'1 0.6
2014-Apr-13 11:33N 40°16' W 072°52'1 1.4
2014-Apr-13 10:33N 40°15' W 072°53'3 2.4
2014-Apr-13 09:28N 40°14' W 072°56'1 0.6
2014-Apr-13 08:33N 40°14' W 072°55'4 4.0
2014-Apr-13 07:33N 40°17' W 072°53'2 2.0
2014-Apr-13 06:33N 40°15' W 072°54'0 0.3
2014-Apr-13 05:33N 40°15' W 072°54'2 1.9
2014-Apr-13 04:31N 40°17' W 072°53'2 1.9
2014-Apr-13 03:33N 40°15' W 072°54'1 0.5
2014-Apr-13 02:27N 40°15' W 072°54'2 2.3
2014-Apr-13 01:33N 40°16' W 072°52'2 1.7
2014-Apr-13 00:33N 40°15' W 072°54'1 1.5
2014-Apr-12 23:32N 40°16' W 072°52'1 0.4
2014-Apr-12 21:11N 40°15' W 072°53'0 0.6
2014-Apr-12 20:26N 40°16' W 072°54'1 0.8
2014-Apr-12 19:33N 40°15' W 072°54'1 0.2
2014-Apr-12 16:28N 40°15' W 072°55'0 0.1
2014-Apr-12 13:16N 40°14' W 072°55'3 4.6
2014-Apr-12 12:31N 40°17' W 072°52'3 2.5
2014-Apr-12 11:30N 40°15' W 072°54'1 0.1
2014-Apr-11 22:33N 40°16' W 072°53'1 0.6
2014-Apr-11 21:33N 40°16' W 072°53'1 0.8
2014-Apr-11 20:34N 40°17' W 072°53'1 0.5
2014-Apr-11 19:30N 40°17' W 072°52'0 0.2
2014-Apr-11 18:30N 40°17' W 072°52'1 0.6
2014-Apr-11 17:33N 40°18' W 072°52'3 1.6
2014-Apr-11 15:33N 40°15' W 072°53'5 0.8
2014-Apr-11 09:10N 40°18' W 072°49'2 3.1
2014-Apr-11 08:33N 40°18' W 072°51'0 0.2
2014-Apr-11 06:15N 40°18' W 072°52'2 3.2
2014-Apr-11 05:33N 40°19' W 072°49'1 0.6
2014-Apr-11 04:33N 40°19' W 072°50'3 2.5
2014-Apr-11 03:33N 40°17' W 072°52'1 0.7
2014-Apr-11 02:33N 40°18' W 072°52'1 0.7
2014-Apr-11 01:33N 40°18' W 072°51'1 0.8
2014-Apr-11 00:31N 40°18' W 072°52'0 0.2
2014-Apr-10 22:33N 40°18' W 072°51'2 1.6
2014-Apr-10 21:33N 40°16' W 072°52'3 2.7
2014-Apr-10 20:33N 40°19' W 072°50'0 0.4
2014-Apr-10 19:33N 40°18' W 072°51'1 1.1
2014-Apr-10 18:33N 40°17' W 072°51'0 0.5
2014-Apr-10 17:33N 40°18' W 072°51'1 0.0
2014-Apr-09 10:16N 40°17' W 072°51'6 0.5
2014-Apr-08 22:16N 40°22' W 072°51'1 1.1
2014-Apr-08 21:10N 40°23' W 072°50'0 0.3
2014-Apr-08 20:07N 40°23' W 072°51'3 3.7
2014-Apr-08 19:19N 40°21' W 072°51'1 1.1
2014-Apr-08 18:32N 40°21' W 072°50'1 1.2
2014-Apr-08 17:29N 40°21' W 072°52'1 1.1
2014-Apr-08 16:17N 40°21' W 072°50'1 0.8
2014-Apr-08 15:06N 40°21' W 072°49'1 0.8
2014-Apr-08 14:05N 40°21' W 072°50'0 0.1
2014-Apr-08 13:05N 40°21' W 072°50'4 0.3
2014-Apr-07 21:33N 40°20' W 072°55'1 0.7
2014-Apr-07 20:33N 40°20' W 072°56'2 2.5
2014-Apr-07 19:33N 40°21' W 072°53'0 0.1
2014-Apr-07 17:30N 40°20' W 072°53'1 1.2
2014-Apr-07 16:33N 40°20' W 072°54'0 0.2
2014-Apr-07 15:31N 40°20' W 072°54'0 0.2
2014-Apr-07 14:33N 40°20' W 072°55'0 0.3
2014-Apr-07 13:33N 40°19' W 072°55'0 0.2
2014-Apr-07 12:33N 40°20' W 072°55'1 1.4
2014-Apr-07 11:33N 40°20' W 072°53'1 0.6
2014-Apr-07 10:33N 40°20' W 072°54'0 0.5
2014-Apr-07 09:33N 40°20' W 072°54'1 1.3
2014-Apr-07 08:33N 40°21' W 072°53'1 0.6
2014-Apr-07 07:32N 40°20' W 072°53'1 0.9
2014-Apr-07 06:33N 40°21' W 072°53'4 3.6
2014-Apr-07 05:33N 40°17' W 072°54'3 2.9
2014-Apr-07 04:33N 40°20' W 072°53'2 2.3
2014-Apr-07 03:33N 40°18' W 072°55'2 2.4
2014-Apr-07 02:33N 40°20' W 072°53'3 3.3
2014-Apr-07 01:33N 40°17' W 072°54'  

Dump ship's entire track history

sailing weather and tide predictions

Pontos — WDC8486 — position and weather